VA78 weather

White Oak Farm Heliport
Surry, Virginia, United States

Public forecast

Using degrees Fahrenheit for public forecast. Weather courtesy of forecast.io.

METAR (pilot weather report)

Closest report is Wakefield Municipal Airport, 7.9 nm (14.6 km) SW. Retrieved 2019/07/18 09:54 UTC (11 minutes ago):

KAKQ 180954Z AUTO 20004KT 10SM CLR 26/23 A2992 RMK AO2 SLP131 T02560228

TAF (pilot weather forecast)

Closest forecast is Felker Army Air Field, 13.2 nm (24.5 km) ENE. Retrieved 2019/07/18 10:10 UTC (0 seconds ago):

TAF KFAF 181000Z 1810/1916 22010KT 9999 SCT040 BKN150 QNH2986INS BECMG 1821/1822 22008KT 9000 -SHRA BKN050 QNH2988INS TEMPO 1822/1902 23015G25KT 4800 -TSRA OVC050CB BECMG 1903/1904 25008KT 9999 NSW FEW030 SCT060 QNH2990INS TX33/1819Z TN26/1910Z